Terminal Aerodrome Forecast
Issued by NWS

Home | Current Version | Previous Version | Text Only | Print | Product List | Glossary On
Versions: 1 2 3 4 5 6 7 8 9 10 11 12 13 14 15 16 17
000
FTUS45 KGJT 300537
TAFASE
TAF
KASE 300537Z 3006/3106 22009KT P6SM SCT250
     FM301500 24005KT P6SM SCT250
     FM302100 29008KT P6SM VCSH SCT200
     FM310200 24005KT P6SM SCT250=

USA.gov is the U.S. government's official web portal to all federal, state and local government web resources and services.